Time;durP1;ratioP1;P1;durP2;ratioP2;P2;SDS_P1;SDS_P2;PMS_P1;PMS_P2;Temp;Humidity;BMP_temperature;BMP_pressure;BME280_temperature;BME280_humidity;BME280_pressure;Samples;Min_cycle;Max_cycle;Signal;HPM_P1;HPM_P2
2022/02/25 00:00:14;;;;;;;;;3.00;1.00;;;;;;;;4997698;28;45273;-73
2022/02/25 00:02:40;;;;;;;;;2.25;1.00;;;;;;;;4998605;28;45295;-72
2022/02/25 00:05:05;;;;;;;;;1.00;1.00;;;;;;;;4999198;28;45998;-72
2022/02/25 00:07:30;;;;;;;;;1.50;0.50;;;;;;;;4997652;28;45502;-72
2022/02/25 00:09:56;;;;;;;;;3.00;1.25;;;;;;;;4996795;28;46021;-72
2022/02/25 00:12:21;;;;;;;;;1.25;1.25;;;;;;;;4997496;28;45385;-73
2022/02/25 00:14:46;;;;;;;;;2.50;1.75;;;;;;;;4997482;28;45499;-73
2022/02/25 00:17:12;;;;;;;;;1.50;1.50;;;;;;;;4998102;28;45369;-73
2022/02/25 00:19:37;;;;;;;;;2.00;2.00;;;;;;;;4997111;28;45486;-72
2022/02/25 00:22:02;;;;;;;;;2.00;0.50;;;;;;;;4996916;28;45589;-73
2022/02/25 00:24:27;;;;;;;;;3.75;1.75;;;;;;;;4996411;28;45375;-72
2022/02/25 00:26:52;;;;;;;;;4.25;1.75;;;;;;;;4997100;28;45480;-72
2022/02/25 00:29:18;;;;;;;;;2.00;2.00;;;;;;;;4997173;28;45444;-73
2022/02/25 00:31:43;;;;;;;;;1.75;0.00;;;;;;;;4996851;28;45402;-72
2022/02/25 00:34:08;;;;;;;;;6.00;2.00;;;;;;;;4996950;28;45365;-73
2022/02/25 00:36:33;;;;;;;;;3.50;2.00;;;;;;;;4997094;28;45463;-73
2022/02/25 00:38:58;;;;;;;;;1.00;1.00;;;;;;;;4996574;28;46093;-72
2022/02/25 00:41:24;;;;;;;;;3.00;1.50;;;;;;;;4996875;28;45344;-72
2022/02/25 00:43:49;;;;;;;;;2.75;2.00;;;;;;;;4997548;28;45511;-72
2022/02/25 00:46:14;;;;;;;;;2.25;1.00;;;;;;;;4997027;28;45410;-72
2022/02/25 00:48:39;;;;;;;;;1.75;1.75;;;;;;;;4996890;28;47148;-72
2022/02/25 00:51:04;;;;;;;;;3.50;2.25;;;;;;;;4996421;28;45511;-71
2022/02/25 00:53:30;;;;;;;;;1.75;1.75;;;;;;;;4996806;28;45588;-72
2022/02/25 00:55:55;;;;;;;;;2.00;2.00;;;;;;;;4997671;28;45437;-72
2022/02/25 00:58:21;;;;;;;;;1.00;1.00;;;;;;;;4996699;28;45954;-72
2022/02/25 01:00:46;;;;;;;;;2.25;1.00;;;;;;;;4996685;28;45523;-72
2022/02/25 01:03:12;;;;;;;;;1.00;1.00;;;;;;;;4996910;28;45435;-71
2022/02/25 01:05:37;;;;;;;;;4.00;1.75;;;;;;;;4996859;28;45231;-73
2022/02/25 01:08:05;;;;;;;;;2.75;0.00;;;;;;;;4996850;28;47067;-73
2022/02/25 01:10:31;;;;;;;;;1.50;0.75;;;;;;;;4996254;28;45243;-72
2022/02/25 01:12:56;;;;;;;;;3.25;1.00;;;;;;;;4978710;28;45510;-72
2022/02/25 01:15:21;;;;;;;;;4.25;1.00;;;;;;;;4996533;28;45457;-72
2022/02/25 01:17:46;;;;;;;;;1.00;1.00;;;;;;;;4996441;28;46280;-72
2022/02/25 01:20:12;;;;;;;;;3.00;2.00;;;;;;;;4997165;28;45242;-73
2022/02/25 01:22:37;;;;;;;;;1.75;1.75;;;;;;;;4996256;28;45375;-72
2022/02/25 01:25:02;;;;;;;;;1.00;1.00;;;;;;;;4996047;28;45397;-72
2022/02/25 01:27:30;;;;;;;;;3.25;1.50;;;;;;;;4996119;28;46940;-72
2022/02/25 01:29:55;;;;;;;;;2.00;2.00;;;;;;;;4996296;28;45413;-72
2022/02/25 01:32:20;;;;;;;;;1.25;1.00;;;;;;;;4996768;28;45392;-72
2022/02/25 01:34:45;;;;;;;;;1.00;1.00;;;;;;;;4996542;28;45413;-72
2022/02/25 01:37:11;;;;;;;;;4.25;1.00;;;;;;;;4995852;28;46165;-72
2022/02/25 01:39:36;;;;;;;;;1.75;1.75;;;;;;;;4996457;28;45417;-72
2022/02/25 01:42:02;;;;;;;;;1.00;1.00;;;;;;;;4996433;28;45448;-72
2022/02/25 01:44:29;;;;;;;;;2.75;1.50;;;;;;;;4993429;28;45708;-72
2022/02/25 01:46:59;;;;;;;;;1.00;1.00;;;;;;;;4996341;28;46344;-72
2022/02/25 01:49:25;;;;;;;;;1.25;1.25;;;;;;;;4995933;28;45587;-72
2022/02/25 01:52:00;;;;;;;;;5.75;2.00;;;;;;;;4995859;28;45334;-72
2022/02/25 01:54:27;;;;;;;;;3.75;2.00;;;;;;;;4995840;28;45374;-72
2022/02/25 01:56:53;;;;;;;;;3.25;2.00;;;;;;;;4995909;28;45394;-73
2022/02/25 01:59:18;;;;;;;;;2.50;0.00;;;;;;;;4996279;28;45524;-72
2022/02/25 02:01:43;;;;;;;;;1.50;1.00;;;;;;;;4996320;28;45555;-72
2022/02/25 02:04:09;;;;;;;;;3.50;1.75;;;;;;;;4995835;28;45470;-72
2022/02/25 02:06:35;;;;;;;;;0.25;0.25;;;;;;;;4977610;28;47518;-72
2022/02/25 02:09:00;;;;;;;;;3.25;2.00;;;;;;;;4995723;28;45373;-72
2022/02/25 02:11:30;;;;;;;;;2.75;1.25;;;;;;;;4996721;28;45425;-73
2022/02/25 02:13:56;;;;;;;;;1.00;1.00;;;;;;;;4996838;28;45440;-72
2022/02/25 02:16:21;;;;;;;;;4.25;1.00;;;;;;;;4995813;28;46458;-73
2022/02/25 02:18:46;;;;;;;;;2.50;1.50;;;;;;;;4978386;28;45448;-73
2022/02/25 02:21:12;;;;;;;;;1.25;1.25;;;;;;;;4995339;28;49766;-73
2022/02/25 02:23:37;;;;;;;;;4.00;1.25;;;;;;;;4995947;28;45527;-71
2022/02/25 02:26:02;;;;;;;;;1.25;1.25;;;;;;;;4995994;28;46517;-74
2022/02/25 02:28:27;;;;;;;;;1.75;1.75;;;;;;;;4995210;28;45599;-72
2022/02/25 02:30:53;;;;;;;;;2.75;1.50;;;;;;;;4995720;28;45309;-73
2022/02/25 02:33:18;;;;;;;;;3.75;1.75;;;;;;;;4995492;28;45570;-72
2022/02/25 02:35:44;;;;;;;;;2.75;1.00;;;;;;;;4995122;28;46282;-72
2022/02/25 02:38:09;;;;;;;;;1.00;1.00;;;;;;;;4996150;28;45243;-72
2022/02/25 02:40:34;;;;;;;;;2.00;1.25;;;;;;;;4995324;28;45611;-73
2022/02/25 02:42:59;;;;;;;;;4.00;1.75;;;;;;;;4995525;28;45364;-72
2022/02/25 02:45:25;;;;;;;;;1.00;1.00;;;;;;;;4995241;28;46289;-72
2022/02/25 02:47:50;;;;;;;;;1.75;1.00;;;;;;;;4995244;28;45568;-72
2022/02/25 02:50:15;;;;;;;;;1.50;1.50;;;;;;;;4995788;28;45307;-72
2022/02/25 02:52:41;;;;;;;;;2.00;1.50;;;;;;;;4995270;28;45366;-72
2022/02/25 02:55:06;;;;;;;;;2.00;2.00;;;;;;;;4995032;28;45403;-72
2022/02/25 02:57:32;;;;;;;;;3.00;1.00;;;;;;;;4995013;28;45574;-72
2022/02/25 02:59:57;;;;;;;;;3.50;1.00;;;;;;;;4995346;28;45473;-72
2022/02/25 03:02:23;;;;;;;;;1.00;1.00;;;;;;;;4995383;28;45476;-72
2022/02/25 03:04:48;;;;;;;;;1.25;1.25;;;;;;;;4994782;28;46177;-72
2022/02/25 03:07:13;;;;;;;;;1.00;1.00;;;;;;;;4994879;28;45519;-72
2022/02/25 03:09:39;;;;;;;;;1.00;1.00;;;;;;;;4995006;28;45435;-73
2022/02/25 03:12:05;;;;;;;;;2.00;1.00;;;;;;;;4994849;28;45535;-72
2022/02/25 03:14:31;;;;;;;;;1.25;0.25;;;;;;;;4994147;28;45934;-72
2022/02/25 03:16:56;;;;;;;;;1.50;1.50;;;;;;;;4993313;28;45358;-72
2022/02/25 03:19:21;;;;;;;;;3.00;1.50;;;;;;;;4976767;28;45443;-71
2022/02/25 03:21:46;;;;;;;;;2.50;1.25;;;;;;;;4994780;28;45435;-72
2022/02/25 03:24:12;;;;;;;;;1.25;1.00;;;;;;;;4994830;28;46518;-71
2022/02/25 03:26:37;;;;;;;;;1.00;0.00;;;;;;;;4994792;28;45623;-71
2022/02/25 03:29:03;;;;;;;;;1.00;1.00;;;;;;;;4995231;28;45357;-72
2022/02/25 03:31:28;;;;;;;;;1.50;1.25;;;;;;;;4994596;28;45463;-72
2022/02/25 03:33:53;;;;;;;;;3.00;1.00;;;;;;;;4993943;28;46862;-71
2022/02/25 03:36:18;;;;;;;;;3.00;0.75;;;;;;;;4994584;28;45447;-72
2022/02/25 03:38:44;;;;;;;;;1.00;0.50;;;;;;;;4994822;28;45292;-72
2022/02/25 03:41:10;;;;;;;;;1.75;1.00;;;;;;;;4995318;28;45468;-72
2022/02/25 03:43:36;;;;;;;;;1.00;1.00;;;;;;;;4994452;28;46386;-72
2022/02/25 03:46:01;;;;;;;;;1.75;1.75;;;;;;;;4994441;28;45396;-72
2022/02/25 03:48:26;;;;;;;;;2.00;1.00;;;;;;;;4994391;28;45394;-72
2022/02/25 03:50:51;;;;;;;;;0.75;0.75;;;;;;;;4994437;28;45473;-72
2022/02/25 03:53:16;;;;;;;;;0.50;0.00;;;;;;;;4994714;28;46925;-72
2022/02/25 03:55:42;;;;;;;;;1.00;0.25;;;;;;;;4994651;28;45352;-71
2022/02/25 03:58:07;;;;;;;;;3.00;0.25;;;;;;;;4994236;28;45455;-72
2022/02/25 04:00:32;;;;;;;;;3.00;1.00;;;;;;;;4993855;28;45411;-72
2022/02/25 04:02:57;;;;;;;;;0.75;0.00;;;;;;;;4993525;28;46212;-72
2022/02/25 04:05:22;;;;;;;;;3.25;1.25;;;;;;;;4994620;28;45508;-72
2022/02/25 04:07:48;;;;;;;;;3.00;3.00;;;;;;;;4994887;28;45228;-71
2022/02/25 04:10:13;;;;;;;;;1.50;0.25;;;;;;;;4993562;28;45535;-72
2022/02/25 04:12:40;;;;;;;;;3.00;1.75;;;;;;;;4993414;28;46482;-72
2022/02/25 04:15:05;;;;;;;;;1.75;1.25;;;;;;;;4993616;28;45338;-72
2022/02/25 04:17:32;;;;;;;;;1.00;1.00;;;;;;;;4993391;28;45427;-72
2022/02/25 04:19:57;;;;;;;;;2.25;2.00;;;;;;;;4994051;28;45285;-72
2022/02/25 04:22:23;;;;;;;;;3.25;2.00;;;;;;;;4993325;28;46434;-72
2022/02/25 04:24:48;;;;;;;;;1.50;0.00;;;;;;;;4993683;28;45262;-72
2022/02/25 04:27:13;;;;;;;;;1.75;0.75;;;;;;;;4997131;28;45356;-72
2022/02/25 04:29:41;;;;;;;;;0.75;0.75;;;;;;;;4997574;28;45500;-72
2022/02/25 04:32:06;;;;;;;;;2.25;1.25;;;;;;;;4997598;28;46957;-73
2022/02/25 04:34:31;;;;;;;;;2.50;1.00;;;;;;;;4996967;28;45507;-71
2022/02/25 04:36:57;;;;;;;;;1.50;0.00;;;;;;;;4997164;28;45445;-73
2022/02/25 04:39:22;;;;;;;;;0.00;0.00;;;;;;;;4997049;28;45718;-72
2022/02/25 04:41:47;;;;;;;;;0.25;0.25;;;;;;;;4996527;28;46192;-73
2022/02/25 04:44:12;;;;;;;;;1.00;0.25;;;;;;;;4997193;28;45459;-73
2022/02/25 04:46:38;;;;;;;;;3.50;0.00;;;;;;;;4996435;28;45432;-73
2022/02/25 04:49:04;;;;;;;;;2.50;1.00;;;;;;;;4996763;28;45504;-73
2022/02/25 04:51:29;;;;;;;;;2.00;1.00;;;;;;;;4996684;28;46551;-73
2022/02/25 04:53:54;;;;;;;;;1.50;0.25;;;;;;;;4996562;28;45397;-72
2022/02/25 04:56:20;;;;;;;;;1.00;1.00;;;;;;;;4997312;28;45492;-72
2022/02/25 04:58:45;;;;;;;;;1.75;1.75;;;;;;;;4997077;28;45445;-72
2022/02/25 05:01:11;;;;;;;;;2.00;1.25;;;;;;;;4995889;28;45449;-73
2022/02/25 05:03:37;;;;;;;;;1.00;0.50;;;;;;;;4996412;28;45412;-72
2022/02/25 05:06:02;;;;;;;;;0.50;0.25;;;;;;;;4996384;28;45345;-72
2022/02/25 05:08:28;;;;;;;;;1.25;1.25;;;;;;;;4996674;28;46053;-73
2022/02/25 05:10:53;;;;;;;;;1.75;0.50;;;;;;;;4996449;28;46372;-72
2022/02/25 05:13:18;;;;;;;;;0.00;0.00;;;;;;;;4995916;28;45421;-72
2022/02/25 05:21:11;;;;;;;;;0.00;0.00;;;;;;;;4996123;28;45463;-72
2022/02/25 05:23:37;;;;;;;;;3.00;3.00;;;;;;;;4995794;28;45426;-73
2022/02/25 05:26:02;;;;;;;;;2.00;1.00;;;;;;;;4996521;28;45436;-74
2022/02/25 05:28:27;;;;;;;;;6.00;2.00;;;;;;;;4995631;28;45436;-74
2022/02/25 05:30:53;;;;;;;;;1.25;1.25;;;;;;;;4995593;28;46106;-74
2022/02/25 05:33:18;;;;;;;;;4.00;2.25;;;;;;;;4995775;28;45447;-74
2022/02/25 05:35:43;;;;;;;;;1.75;1.50;;;;;;;;4995577;28;45328;-74
2022/02/25 05:38:09;;;;;;;;;1.00;1.00;;;;;;;;4995846;28;45608;-74
2022/02/25 05:40:34;;;;;;;;;1.75;0.75;;;;;;;;4977660;28;47113;-74
2022/02/25 05:43:00;;;;;;;;;1.00;1.00;;;;;;;;4994989;28;45400;-72
2022/02/25 05:45:25;;;;;;;;;1.75;1.75;;;;;;;;4995540;28;45355;-74
2022/02/25 05:47:51;;;;;;;;;2.25;1.00;;;;;;;;4995936;28;45676;-74
2022/02/25 05:50:17;;;;;;;;;2.50;1.50;;;;;;;;4995794;28;46236;-72
2022/02/25 05:52:43;;;;;;;;;1.00;1.00;;;;;;;;4995406;28;45429;-74
2022/02/25 05:55:09;;;;;;;;;3.25;1.75;;;;;;;;4995117;28;45308;-74
2022/02/25 05:57:34;;;;;;;;;4.50;2.00;;;;;;;;4994982;28;45498;-72
2022/02/25 05:59:59;;;;;;;;;5.50;1.00;;;;;;;;4977573;28;47387;-73
2022/02/25 06:02:25;;;;;;;;;3.50;1.00;;;;;;;;4994979;28;45247;-72
2022/02/25 06:04:50;;;;;;;;;3.00;1.75;;;;;;;;4995402;28;45250;-73
2022/02/25 06:07:16;;;;;;;;;2.75;1.50;;;;;;;;4994460;28;45532;-72
2022/02/25 06:09:41;;;;;;;;;3.00;1.00;;;;;;;;4994309;28;45662;-74
2022/02/25 06:12:06;;;;;;;;;2.00;2.00;;;;;;;;5009644;28;45292;-72
2022/02/25 06:14:31;;;;;;;;;1.00;1.00;;;;;;;;4994611;28;45500;-74
2022/02/25 06:16:56;;;;;;;;;1.50;1.00;;;;;;;;4995360;28;45397;-74
2022/02/25 06:19:22;;;;;;;;;4.75;3.00;;;;;;;;4994048;28;45756;-74
2022/02/25 06:21:48;;;;;;;;;6.00;6.00;;;;;;;;4993722;28;45456;-73
2022/02/25 06:24:13;;;;;;;;;15.75;13.75;;;;;;;;4994416;28;45486;-74
2022/02/25 06:26:39;;;;;;;;;3.00;3.00;;;;;;;;4993700;28;45539;-73
2022/02/25 06:29:04;;;;;;;;;1.25;1.25;;;;;;;;4994840;28;45385;-70
2022/02/25 06:31:29;;;;;;;;;6.75;3.25;;;;;;;;4994115;28;45185;-71
2022/02/25 06:33:54;;;;;;;;;1.75;0.75;;;;;;;;4994264;28;45246;-71
2022/02/25 06:36:20;;;;;;;;;0.75;0.75;;;;;;;;4994931;28;45564;-72
2022/02/25 06:38:46;;;;;;;;;2.00;2.00;;;;;;;;4994563;28;46260;-71
2022/02/25 06:41:11;;;;;;;;;2.25;2.25;;;;;;;;4994374;28;45460;-71
2022/02/25 06:43:36;;;;;;;;;1.00;1.00;;;;;;;;4994116;28;45458;-72
2022/02/25 06:46:02;;;;;;;;;6.50;4.00;;;;;;;;4993620;28;45458;-73
2022/02/25 06:48:27;;;;;;;;;3.00;2.00;;;;;;;;4992937;28;46110;-72
2022/02/25 06:50:52;;;;;;;;;1.50;1.00;;;;;;;;4993851;28;45429;-71
2022/02/25 06:53:18;;;;;;;;;3.00;3.00;;;;;;;;4994476;28;45429;-72
2022/02/25 06:55:43;;;;;;;;;1.00;1.00;;;;;;;;4993625;28;45371;-74
2022/02/25 06:58:08;;;;;;;;;4.00;2.50;;;;;;;;4993415;28;45493;-75
2022/02/25 07:00:36;;;;;;;;;2.25;2.25;;;;;;;;4993759;28;45463;-76
2022/02/25 07:03:01;;;;;;;;;2.00;1.75;;;;;;;;4993829;28;45531;-76
2022/02/25 07:05:26;;;;;;;;;0.00;0.00;;;;;;;;4993958;28;45331;-75
2022/02/25 07:07:52;;;;;;;;;3.50;2.75;;;;;;;;4993759;28;46174;-75
2022/02/25 07:10:17;;;;;;;;;0.00;0.00;;;;;;;;4992848;28;45427;-75
2022/02/25 07:12:43;;;;;;;;;2.00;2.00;;;;;;;;4993589;28;45500;-75
2022/02/25 07:15:08;;;;;;;;;1.00;1.00;;;;;;;;4976095;28;45645;-76
2022/02/25 07:17:34;;;;;;;;;2.00;2.00;;;;;;;;4993852;28;45451;-76
2022/02/25 07:19:59;;;;;;;;;2.75;2.00;;;;;;;;4993724;28;45540;-75
2022/02/25 07:22:24;;;;;;;;;2.00;2.00;;;;;;;;4992772;28;45298;-75
2022/02/25 07:24:50;;;;;;;;;4.00;4.00;;;;;;;;4974807;28;45560;-71
2022/02/25 07:27:15;;;;;;;;;3.00;3.00;;;;;;;;5007992;28;46530;-70
2022/02/25 07:29:40;;;;;;;;;4.75;2.25;;;;;;;;4974776;28;45437;-72
2022/02/25 07:32:05;;;;;;;;;4.00;2.50;;;;;;;;4993411;28;45377;-71
2022/02/25 07:34:31;;;;;;;;;2.75;1.00;;;;;;;;4992679;28;45421;-70
2022/02/25 07:36:56;;;;;;;;;3.50;2.00;;;;;;;;4992365;28;46260;-72
2022/02/25 07:39:21;;;;;;;;;2.00;0.50;;;;;;;;4992433;28;45449;-73
2022/02/25 07:41:47;;;;;;;;;1.00;1.00;;;;;;;;4993069;28;45461;-72
2022/02/25 07:44:12;;;;;;;;;3.25;2.00;;;;;;;;4993421;28;45385;-71
2022/02/25 07:46:37;;;;;;;;;2.00;2.00;;;;;;;;4992592;28;46114;-73
2022/02/25 07:49:02;;;;;;;;;2.00;2.00;;;;;;;;4992245;28;45409;-73
2022/02/25 07:51:28;;;;;;;;;2.50;1.50;;;;;;;;4992599;28;45466;-72
2022/02/25 07:53:54;;;;;;;;;4.50;1.75;;;;;;;;4990537;28;45506;-73
2022/02/25 07:56:19;;;;;;;;;3.00;2.00;;;;;;;;4993045;28;46250;-72
2022/02/25 07:58:45;;;;;;;;;2.25;1.25;;;;;;;;4992626;28;45508;-72
2022/02/25 08:01:10;;;;;;;;;6.50;6.50;;;;;;;;4995663;28;45431;-72
2022/02/25 08:03:35;;;;;;;;;3.00;2.00;;;;;;;;4994249;28;45416;-70
2022/02/25 08:06:01;;;;;;;;;4.00;4.00;;;;;;;;4983299;28;46074;-73
2022/02/25 08:08:26;;;;;;;;;3.25;1.50;;;;;;;;4994200;28;45470;-71
2022/02/25 08:10:52;;;;;;;;;2.50;2.00;;;;;;;;4993637;28;45490;-70
2022/02/25 08:13:17;;;;;;;;;1.00;1.00;;;;;;;;4992721;28;45303;-71
2022/02/25 08:15:42;;;;;;;;;1.25;1.00;;;;;;;;4992674;28;45441;-70
2022/02/25 08:18:08;;;;;;;;;1.00;1.00;;;;;;;;4992520;28;45376;-70
2022/02/25 08:20:34;;;;;;;;;5.00;3.25;;;;;;;;4995046;28;45298;-70
2022/02/25 08:23:01;;;;;;;;;3.25;3.25;;;;;;;;4994241;28;45557;-70
2022/02/25 08:25:27;;;;;;;;;4.00;3.25;;;;;;;;4992382;28;45688;-70
2022/02/25 08:27:52;;;;;;;;;1.25;1.25;;;;;;;;4992448;28;45278;-71
2022/02/25 08:30:18;;;;;;;;;1.25;1.25;;;;;;;;4992938;28;45383;-70
2022/02/25 08:32:44;;;;;;;;;3.50;2.50;;;;;;;;4993100;28;45627;-71
2022/02/25 08:35:09;;;;;;;;;6.25;3.50;;;;;;;;4994967;28;45712;-71
2022/02/25 08:37:35;;;;;;;;;2.00;2.00;;;;;;;;4991686;28;45348;-71
2022/02/25 08:40:01;;;;;;;;;4.00;2.75;;;;;;;;4991874;28;45593;-70
2022/02/25 08:42:27;;;;;;;;;5.00;3.00;;;;;;;;4992157;28;45501;-71
2022/02/25 08:44:52;;;;;;;;;2.50;2.50;;;;;;;;4991917;28;46305;-70
2022/02/25 08:47:17;;;;;;;;;5.50;4.00;;;;;;;;4995720;28;45368;-70
2022/02/25 08:49:42;;;;;;;;;3.75;1.25;;;;;;;;4994388;28;46634;-70
2022/02/25 08:52:09;;;;;;;;;1.75;1.75;;;;;;;;4991814;28;45509;-70
2022/02/25 08:54:35;;;;;;;;;5.00;4.00;;;;;;;;4991945;28;45390;-71
2022/02/25 08:57:00;;;;;;;;;2.75;2.25;;;;;;;;4992291;28;45598;-69
2022/02/25 08:59:25;;;;;;;;;3.25;3.25;;;;;;;;4977292;28;45375;-71
2022/02/25 09:01:50;;;;;;;;;2.25;2.00;;;;;;;;4993231;28;45350;-72
2022/02/25 09:04:16;;;;;;;;;3.00;3.00;;;;;;;;4976146;28;47388;-71
2022/02/25 09:06:41;;;;;;;;;2.00;2.00;;;;;;;;4995554;28;45464;-70
2022/02/25 09:09:06;;;;;;;;;3.50;1.50;;;;;;;;4996104;28;45221;-70
2022/02/25 09:11:32;;;;;;;;;3.25;3.25;;;;;;;;4995256;28;45313;-71
2022/02/25 09:13:57;;;;;;;;;5.00;3.25;;;;;;;;4993898;28;45450;-70
2022/02/25 09:16:22;;;;;;;;;2.00;2.00;;;;;;;;4995802;28;45400;-70
2022/02/25 09:18:48;;;;;;;;;4.00;2.50;;;;;;;;4996633;28;45427;-70
2022/02/25 09:21:13;;;;;;;;;1.50;0.25;;;;;;;;4994565;28;45557;-70
2022/02/25 09:23:39;;;;;;;;;2.50;2.50;;;;;;;;4995451;28;47050;-70
2022/02/25 09:26:04;;;;;;;;;1.00;1.00;;;;;;;;4995776;28;45327;-70
2022/02/25 09:28:29;;;;;;;;;4.00;3.00;;;;;;;;4995482;28;45781;-71
2022/02/25 09:30:55;;;;;;;;;3.00;3.00;;;;;;;;4995042;28;45507;-71
2022/02/25 09:33:20;;;;;;;;;7.00;4.50;;;;;;;;4995090;28;46621;-69
2022/02/25 09:35:45;;;;;;;;;3.50;3.50;;;;;;;;4994880;28;45336;-71
2022/02/25 09:38:11;;;;;;;;;2.00;2.00;;;;;;;;4995890;28;45399;-70
2022/02/25 09:40:37;;;;;;;;;3.50;2.75;;;;;;;;4995010;28;45308;-70
2022/02/25 09:43:03;;;;;;;;;6.25;2.00;;;;;;;;4977046;28;47712;-69
2022/02/25 09:45:28;;;;;;;;;6.75;5.00;;;;;;;;4994912;28;45633;-70
2022/02/25 09:47:53;;;;;;;;;8.50;4.75;;;;;;;;4995017;28;45341;-69
2022/02/25 09:50:19;;;;;;;;;9.25;4.25;;;;;;;;4990647;28;45529;-70
2022/02/25 09:52:45;;;;;;;;;1.25;1.25;;;;;;;;4995332;28;46191;-71
2022/02/25 09:55:34;;;;;;;;;3.75;3.50;;;;;;;;4994759;28;45554;-71
2022/02/25 09:58:03;;;;;;;;;3.75;2.75;;;;;;;;4992009;28;45574;-67
2022/02/25 10:00:28;;;;;;;;;5.25;4.75;;;;;;;;4994699;28;46456;-72
2022/02/25 10:02:54;;;;;;;;;2.50;2.00;;;;;;;;4994168;28;46387;-70
2022/02/25 10:05:21;;;;;;;;;1.00;1.00;;;;;;;;4994402;28;45373;-71
2022/02/25 10:07:48;;;;;;;;;0.75;0.75;;;;;;;;4994749;28;45424;-70
2022/02/25 10:10:14;;;;;;;;;4.50;4.50;;;;;;;;4976688;28;45604;-70
2022/02/25 10:12:44;;;;;;;;;3.75;3.75;;;;;;;;4994308;28;46259;-69
2022/02/25 10:15:09;;;;;;;;;3.00;1.00;;;;;;;;4994298;28;45322;-69
2022/02/25 10:17:35;;;;;;;;;4.75;3.00;;;;;;;;4994455;28;45299;-70
2022/02/25 10:20:03;;;;;;;;;3.00;3.00;;;;;;;;4994615;28;45429;-70
2022/02/25 10:22:30;;;;;;;;;1.00;1.00;;;;;;;;4994190;28;46169;-71
2022/02/25 10:25:05;;;;;;;;;1.00;1.00;;;;;;;;4993964;28;45410;-70
2022/02/25 10:27:36;;;;;;;;;2.00;2.00;;;;;;;;4976679;28;45362;-69
2022/02/25 10:30:01;;;;;;;;;5.75;3.00;;;;;;;;4994073;28;45460;-71
2022/02/25 10:32:27;;;;;;;;;4.25;4.25;;;;;;;;4993888;28;46138;-71
2022/02/25 10:34:53;;;;;;;;;3.50;3.50;;;;;;;;4994201;28;45352;-70
2022/02/25 10:37:18;;;;;;;;;4.25;2.00;;;;;;;;4993524;28;45465;-70
2022/02/25 10:39:43;;;;;;;;;5.25;5.00;;;;;;;;4993918;28;45304;-69
2022/02/25 10:42:11;;;;;;;;;8.50;4.50;;;;;;;;4993378;28;46529;-69
2022/02/25 10:44:49;;;;;;;;;2.00;2.00;;;;;;;;4993301;28;45344;-70
2022/02/25 10:47:16;;;;;;;;;6.25;4.00;;;;;;;;4994601;28;45455;-70
2022/02/25 10:49:41;;;;;;;;;6.75;4.00;;;;;;;;4993092;28;45195;-71
2022/02/25 10:52:23;;;;;;;;;6.00;3.25;;;;;;;;4993339;28;47127;-71
2022/02/25 10:54:49;;;;;;;;;4.75;2.50;;;;;;;;4993505;28;45646;-70
2022/02/25 10:57:14;;;;;;;;;3.00;3.00;;;;;;;;4993457;28;45295;-69
2022/02/25 10:59:43;;;;;;;;;2.00;1.75;;;;;;;;4994072;28;45484;-71
2022/02/25 11:02:38;;;;;;;;;1.75;1.00;;;;;;;;4993796;28;46067;-71
2022/02/25 11:05:11;;;;;;;;;1.25;1.00;;;;;;;;4986988;28;45279;-70
2022/02/25 11:07:37;;;;;;;;;1.75;1.75;;;;;;;;4993430;28;45639;-70
2022/02/25 11:10:04;;;;;;;;;2.75;0.75;;;;;;;;4992893;28;45347;-70
2022/02/25 11:12:29;;;;;;;;;3.00;1.75;;;;;;;;4993346;28;45604;-70
2022/02/25 11:14:56;;;;;;;;;1.00;1.00;;;;;;;;4993626;28;45508;-71
2022/02/25 11:17:22;;;;;;;;;4.00;1.00;;;;;;;;4993738;28;45311;-71
2022/02/25 11:19:48;;;;;;;;;3.00;3.00;;;;;;;;4993687;28;45399;-71
2022/02/25 11:22:15;;;;;;;;;6.33;4.00;;;;;;;;4993323;28;46904;-70
2022/02/25 11:24:40;;;;;;;;;3.00;2.00;;;;;;;;4993059;28;45306;-70
2022/02/25 11:27:06;;;;;;;;;1.33;1.33;;;;;;;;4975368;28;45372;-70
2022/02/25 11:29:43;;;;;;;;;3.67;1.67;;;;;;;;4993486;28;45364;-71
2022/02/25 11:32:11;;;;;;;;;3.50;1.50;;;;;;;;4992471;28;46700;-70
2022/02/25 11:34:37;;;;;;;;;4.33;2.00;;;;;;;;4992467;28;45409;-74
2022/02/25 11:37:02;;;;;;;;;3.75;3.75;;;;;;;;4993464;28;45392;-72
2022/02/25 11:39:29;;;;;;;;;4.33;2.00;;;;;;;;4993001;28;45489;-71
2022/02/25 11:41:55;;;;;;;;;2.33;0.67;;;;;;;;4992740;28;47358;-71
2022/02/25 11:44:20;;;;;;;;;3.00;2.00;;;;;;;;4993404;28;45410;-72
2022/02/25 11:46:45;;;;;;;;;4.00;2.00;;;;;;;;4992431;28;45428;-72
2022/02/25 11:49:11;;;;;;;;;0.33;0.33;;;;;;;;4993129;28;45514;-72
2022/02/25 11:51:40;;;;;;;;;6.00;3.25;;;;;;;;4993982;28;47252;-71
2022/02/25 11:54:19;;;;;;;;;2.33;2.00;;;;;;;;4993384;28;45478;-72
2022/02/25 11:56:45;;;;;;;;;5.67;5.00;;;;;;;;4994687;28;45453;-72
2022/02/25 11:59:10;;;;;;;;;4.67;4.00;;;;;;;;4996764;28;45515;-72
2022/02/25 12:01:55;;;;;;;;;5.33;4.67;;;;;;;;4995972;28;45420;-72
2022/02/25 12:04:29;;;;;;;;;2.33;1.00;;;;;;;;4999377;28;45512;-74
2022/02/25 12:07:04;;;;;;;;;5.67;3.00;;;;;;;;4987102;28;45457;-73
2022/02/25 12:09:48;;;;;;;;;0.00;0.00;;;;;;;;4990622;28;45546;-72
2022/02/25 12:12:28;;;;;;;;;2.67;1.00;;;;;;;;4989930;28;46252;-71
2022/02/25 12:15:14;;;;;;;;;2.00;1.67;;;;;;;;4974171;28;45329;-71
2022/02/25 12:17:58;;;;;;;;;0.33;0.33;;;;;;;;4989580;28;45294;-71
2022/02/25 12:20:25;;;;;;;;;1.00;1.00;;;;;;;;4992372;28;45464;-71
2022/02/25 12:22:50;;;;;;;;;7.75;5.75;;;;;;;;4990060;28;45401;-72
2022/02/25 12:25:36;;;;;;;;;3.33;1.00;;;;;;;;4989722;28;45399;-71
2022/02/25 12:28:19;;;;;;;;;5.00;2.33;;;;;;;;4975431;28;45496;-71
2022/02/25 12:30:46;;;;;;;;;3.33;3.00;;;;;;;;4989330;28;45428;-71
2022/02/25 12:33:40;;;;;;;;;2.33;2.33;;;;;;;;4989626;28;45414;-72
2022/02/25 12:36:12;;;;;;;;;2.00;1.00;;;;;;;;4947598;28;45546;-72
2022/02/25 12:38:45;;;;;;;;;2.00;1.00;;;;;;;;4949042;28;45581;-71
2022/02/25 12:41:14;;;;;;;;;4.33;2.67;;;;;;;;4950594;28;45451;-71
2022/02/25 12:43:45;;;;;;;;;2.00;2.00;;;;;;;;4957461;28;46969;-71
2022/02/25 12:46:10;;;;;;;;;4.33;3.00;;;;;;;;4952272;28;45393;-72
2022/02/25 12:48:35;;;;;;;;;3.33;1.00;;;;;;;;4951482;28;45346;-72
2022/02/25 12:51:02;;;;;;;;;2.67;2.00;;;;;;;;4951710;28;45713;-72
2022/02/25 12:53:27;;;;;;;;;1.67;1.00;;;;;;;;4953149;28;46386;-72
2022/02/25 12:55:53;;;;;;;;;3.00;2.00;;;;;;;;4951912;28;45344;-73
2022/02/25 12:58:18;;;;;;;;;4.33;3.33;;;;;;;;4950492;28;45419;-72
2022/02/25 13:00:56;;;;;;;;;5.67;2.00;;;;;;;;4950073;28;45541;-70
2022/02/25 13:03:22;;;;;;;;;4.00;2.33;;;;;;;;4949557;28;45734;-71
2022/02/25 13:05:53;;;;;;;;;4.33;1.67;;;;;;;;4950410;28;45521;-72
2022/02/25 13:08:18;;;;;;;;;4.00;3.33;;;;;;;;4950231;28;45355;-71
2022/02/25 13:10:43;;;;;;;;;2.00;2.00;;;;;;;;4949755;28;45524;-71
2022/02/25 13:13:09;;;;;;;;;0.00;0.00;;;;;;;;4977448;28;46201;-71
2022/02/25 13:15:34;;;;;;;;;2.00;2.00;;;;;;;;4991287;28;45591;-71
2022/02/25 13:18:00;;;;;;;;;9.00;7.33;;;;;;;;4992487;28;45435;-71
2022/02/25 13:20:25;;;;;;;;;4.00;2.00;;;;;;;;4994189;28;45423;-71
2022/02/25 13:22:50;;;;;;;;;3.67;2.67;;;;;;;;4992607;28;46153;-72
2022/02/25 13:25:22;;;;;;;;;2.00;1.67;;;;;;;;4991351;28;45553;-71
2022/02/25 13:27:47;;;;;;;;;4.00;3.00;;;;;;;;4990442;28;45456;-70
2022/02/25 13:30:15;;;;;;;;;3.67;1.00;;;;;;;;4991601;28;45468;-70
2022/02/25 13:32:44;;;;;;;;;2.00;2.00;;;;;;;;4992549;28;46993;-72
2022/02/25 13:35:10;;;;;;;;;2.33;2.33;;;;;;;;4994376;28;45351;-72
2022/02/25 13:37:48;;;;;;;;;1.00;1.00;;;;;;;;4992017;28;45563;-71
2022/02/25 13:40:24;;;;;;;;;2.00;2.00;;;;;;;;4991570;28;45465;-71
2022/02/25 13:42:49;;;;;;;;;3.67;2.00;;;;;;;;4990780;28;46205;-72
2022/02/25 13:45:26;;;;;;;;;4.33;2.33;;;;;;;;4991412;28;45328;-72
2022/02/25 13:53:19;;;;;;;;;1.67;1.67;;;;;;;;4994415;28;45339;-72
2022/02/25 13:55:44;;;;;;;;;2.00;1.00;;;;;;;;4991290;28;45334;-72
2022/02/25 13:58:14;;;;;;;;;2.00;2.00;;;;;;;;4990487;28;45471;-71
2022/02/25 14:00:43;;;;;;;;;1.67;0.33;;;;;;;;4992138;28;45460;-71
2022/02/25 14:03:12;;;;;;;;;2.00;1.00;;;;;;;;4990676;28;46358;-70
2022/02/25 14:05:37;;;;;;;;;1.00;1.00;;;;;;;;4992648;28;45420;-71
2022/02/25 14:08:15;;;;;;;;;1.33;1.33;;;;;;;;4993217;28;45469;-76
2022/02/25 14:10:40;;;;;;;;;0.00;0.00;;;;;;;;4991915;28;45689;-71
2022/02/25 14:13:07;;;;;;;;;1.00;0.00;;;;;;;;4990673;28;46008;-72
2022/02/25 14:15:37;;;;;;;;;1.00;1.00;;;;;;;;4990648;28;45376;-73
2022/02/25 14:18:05;;;;;;;;;1.00;1.00;;;;;;;;4973167;28;45387;-72
2022/02/25 14:20:31;;;;;;;;;0.67;0.67;;;;;;;;4993065;28;45475;-72
2022/02/25 14:22:56;;;;;;;;;2.00;2.00;;;;;;;;4991702;28;46000;-70
2022/02/25 14:25:32;;;;;;;;;2.00;0.67;;;;;;;;4991191;28;45425;-72
2022/02/25 14:28:07;;;;;;;;;2.00;0.00;;;;;;;;4990463;28;45567;-73
2022/02/25 14:30:42;;;;;;;;;3.67;2.00;;;;;;;;4990564;28;45299;-73
2022/02/25 14:33:23;;;;;;;;;5.67;2.00;;;;;;;;4990275;28;46026;-77
2022/02/25 14:35:50;;;;;;;;;0.00;0.00;;;;;;;;4975089;28;46415;-77
2022/02/25 14:38:16;;;;;;;;;1.67;0.67;;;;;;;;4992451;28;45339;-75
2022/02/25 14:40:42;;;;;;;;;1.00;1.00;;;;;;;;4989559;28;45280;-75
2022/02/25 14:43:07;;;;;;;;;1.00;1.00;;;;;;;;4989882;28;45305;-75
2022/02/25 14:45:34;;;;;;;;;1.00;1.00;;;;;;;;4990807;28;45237;-76
2022/02/25 14:48:00;;;;;;;;;1.00;1.00;;;;;;;;4991068;28;45409;-74
2022/02/25 14:50:26;;;;;;;;;2.67;2.00;;;;;;;;4992806;28;45547;-74